createdAt,value
2024-05-09T00:00:47.993Z,0
2024-05-09T00:01:49.056Z,0
2024-05-09T00:02:50.305Z,0
2024-05-09T00:03:51.522Z,0
2024-05-09T00:04:52.666Z,0
2024-05-09T00:05:53.711Z,0
2024-05-09T00:06:54.801Z,0
2024-05-09T00:07:56.212Z,0
2024-05-09T00:08:57.853Z,0
2024-05-09T00:10:35.980Z,0
2024-05-09T00:11:31.058Z,0
2024-05-09T00:12:32.139Z,0
2024-05-09T00:13:33.479Z,0
2024-05-09T00:14:34.793Z,0
2024-05-09T00:15:36.591Z,0
2024-05-09T00:16:37.299Z,0
2024-05-09T00:17:38.973Z,0
2024-05-09T00:18:39.951Z,0
2024-05-09T00:19:41.072Z,0
2024-05-09T00:20:42.207Z,0
2024-05-09T00:21:43.361Z,0
2024-05-09T00:22:44.638Z,0
2024-05-09T00:23:45.803Z,0
2024-05-09T00:24:46.964Z,0
2024-05-09T00:25:48.451Z,0
2024-05-09T00:26:49.635Z,0
2024-05-09T00:27:50.692Z,0
2024-05-09T00:28:51.914Z,0
2024-05-09T00:29:52.854Z,0
2024-05-09T00:30:54.116Z,0
2024-05-09T00:31:55.114Z,0
2024-05-09T00:32:56.177Z,0
2024-05-09T00:33:57.888Z,0
2024-05-09T00:35:29.138Z,0
2024-05-09T00:36:30.029Z,0
2024-05-09T00:37:30.942Z,0
2024-05-09T00:38:32.040Z,0
2024-05-09T00:39:33.056Z,0
2024-05-09T00:40:39.152Z,0
2024-05-09T00:41:35.555Z,0
2024-05-09T00:42:36.535Z,0
2024-05-09T00:43:37.699Z,0
2024-05-09T00:44:38.735Z,0
2024-05-09T00:45:40.205Z,0
2024-05-09T00:46:41.216Z,0
2024-05-09T00:47:42.410Z,0
2024-05-09T00:48:43.714Z,0
2024-05-09T00:49:44.971Z,0
2024-05-09T00:50:46.072Z,0
2024-05-09T00:51:47.200Z,0
2024-05-09T00:52:48.416Z,0
2024-05-09T00:53:49.792Z,0
2024-05-09T00:54:50.990Z,0
2024-05-09T00:55:52.006Z,0
2024-05-09T00:56:53.059Z,0
2024-05-09T00:57:54.350Z,0
2024-05-09T00:58:55.480Z,0
2024-05-09T00:59:56.634Z,0
2024-05-09T01:01:28.602Z,0
2024-05-09T01:02:29.738Z,0
2024-05-09T01:03:30.750Z,0
2024-05-09T01:04:31.851Z,0
2024-05-09T01:05:33.066Z,0
2024-05-09T01:06:34.221Z,0
2024-05-09T01:07:35.210Z,0
2024-05-09T01:08:36.576Z,0
2024-05-09T01:09:37.659Z,0
2024-05-09T01:10:39.460Z,0
2024-05-09T01:11:39.938Z,0
2024-05-09T01:12:41.053Z,0
2024-05-09T01:13:42.243Z,0
2024-05-09T01:17:55.002Z,0
2024-05-09T01:18:55.811Z,0
2024-05-09T01:19:57.436Z,0
2024-05-09T01:21:29.371Z,0
2024-05-09T01:22:30.392Z,0
2024-05-09T01:23:31.863Z,0
2024-05-09T01:24:32.831Z,0
2024-05-09T01:25:33.963Z,0
2024-05-09T01:26:35.161Z,0
2024-05-09T01:27:36.244Z,0
2024-05-09T01:28:37.248Z,0
2024-05-09T01:29:38.336Z,0
2024-05-09T01:30:39.778Z,0
2024-05-09T01:31:40.993Z,0
2024-05-09T01:32:42.084Z,0
2024-05-09T01:33:43.192Z,0
2024-05-09T01:34:44.323Z,0
2024-05-09T01:35:45.324Z,0
2024-05-09T01:36:46.453Z,0
2024-05-09T01:37:47.643Z,0
2024-05-09T01:38:48.686Z,0
2024-05-09T01:39:49.625Z,0
2024-05-09T01:40:50.681Z,0
2024-05-09T01:41:51.655Z,0
2024-05-09T01:42:52.632Z,0
2024-05-09T01:43:53.685Z,0
2024-05-09T01:44:54.800Z,0
2024-05-09T01:45:55.750Z,0
2024-05-09T01:46:57.527Z,0
2024-05-09T01:48:29.133Z,0
2024-05-09T01:49:30.032Z,0
2024-05-09T01:51:32.461Z,0
2024-05-09T01:52:33.646Z,0
2024-05-09T01:53:34.990Z,0
2024-05-09T01:54:35.873Z,0
2024-05-09T01:55:36.913Z,0
2024-05-09T01:56:37.977Z,0
2024-05-09T01:57:39.081Z,0
2024-05-09T01:58:40.072Z,0
2024-05-09T01:59:41.179Z,0
2024-05-09T02:00:43.382Z,0
2024-05-09T02:01:56.182Z,0
2024-05-09T02:02:44.115Z,0
2024-05-09T02:03:45.304Z,0
2024-05-09T02:04:46.069Z,0
2024-05-09T02:05:47.862Z,0
2024-05-09T02:06:47.957Z,0
2024-05-09T02:07:49.286Z,0
2024-05-09T02:08:50.331Z,0
2024-05-09T02:09:51.373Z,0
2024-05-09T02:10:52.685Z,0
2024-05-09T02:11:53.746Z,0
2024-05-09T02:12:54.713Z,0
2024-05-09T02:13:55.911Z,0
2024-05-09T02:14:57.301Z,0
2024-05-09T02:16:28.943Z,0
2024-05-09T02:17:30.516Z,0
2024-05-09T02:18:31.682Z,0
2024-05-09T02:19:33.053Z,0
2024-05-09T02:20:36.597Z,0
2024-05-09T02:21:35.019Z,0
2024-05-09T02:22:36.519Z,0
2024-05-09T02:23:37.762Z,0
2024-05-09T02:24:38.568Z,0
2024-05-09T02:25:39.643Z,0
2024-05-09T02:26:40.717Z,0
2024-05-09T02:27:41.648Z,0
2024-05-09T02:28:42.838Z,0
2024-05-09T02:29:43.820Z,0
2024-05-09T02:30:44.905Z,0
2024-05-09T02:31:46.126Z,0
2024-05-09T02:32:47.122Z,0
2024-05-09T02:33:48.276Z,0
2024-05-09T02:34:49.081Z,0
2024-05-09T02:35:50.135Z,0
2024-05-09T02:36:51.172Z,0
2024-05-09T02:37:52.670Z,0
2024-05-09T02:38:53.802Z,0
2024-05-09T02:39:55.063Z,0
2024-05-09T02:40:56.237Z,0
2024-05-09T02:42:27.915Z,0
2024-05-09T02:43:29.209Z,0
2024-05-09T02:44:30.454Z,0
2024-05-09T02:45:31.500Z,0
2024-05-09T02:46:32.618Z,0
2024-05-09T02:47:33.914Z,0
2024-05-09T02:48:35.002Z,0
2024-05-09T02:49:35.975Z,0
2024-05-09T02:50:39.592Z,0
2024-05-09T02:51:38.436Z,0
2024-05-09T02:52:39.502Z,0
2024-05-09T02:53:40.630Z,0
2024-05-09T02:54:41.594Z,0
2024-05-09T02:55:43.345Z,0
2024-05-09T02:56:43.736Z,0
2024-05-09T02:57:44.782Z,0
2024-05-09T02:58:45.781Z,0
2024-05-09T02:59:46.764Z,0
2024-05-09T03:00:47.828Z,0
2024-05-09T03:01:48.984Z,0
2024-05-09T03:02:50.278Z,0
2024-05-09T03:03:51.413Z,0
2024-05-09T03:04:52.230Z,0
2024-05-09T03:05:53.143Z,0
2024-05-09T03:06:54.173Z,0
2024-05-09T03:07:55.238Z,0
2024-05-09T03:08:56.715Z,0
2024-05-09T03:10:29.091Z,0
2024-05-09T03:11:29.349Z,0
2024-05-09T03:12:30.385Z,0
2024-05-09T03:13:31.462Z,0
2024-05-09T03:14:32.578Z,0
2024-05-09T03:15:33.846Z,0
2024-05-09T03:16:34.878Z,0
2024-05-09T03:17:36.311Z,0
2024-05-09T03:18:37.127Z,0
2024-05-09T03:19:38.268Z,0
2024-05-09T03:20:39.763Z,0
2024-05-09T03:21:40.478Z,0
2024-05-09T03:22:41.562Z,0
2024-05-09T03:23:42.805Z,0
2024-05-09T03:24:43.618Z,0
2024-05-09T03:25:44.817Z,0
2024-05-09T03:26:45.818Z,0
2024-05-09T03:27:46.870Z,0
2024-05-09T03:28:47.870Z,0
2024-05-09T03:29:48.881Z,0
2024-05-09T03:30:49.943Z,0
2024-05-09T03:31:51.358Z,0
2024-05-09T03:32:52.236Z,0
2024-05-09T03:33:53.161Z,0
2024-05-09T03:34:54.140Z,0
2024-05-09T03:35:55.054Z,0
2024-05-09T03:36:56.461Z,0
2024-05-09T03:38:27.937Z,0
2024-05-09T03:39:28.902Z,0
2024-05-09T03:40:31.114Z,0
2024-05-09T03:41:31.226Z,0
2024-05-09T03:42:32.551Z,0
2024-05-09T03:43:33.618Z,0
2024-05-09T03:44:34.755Z,0
2024-05-09T03:45:35.691Z,0
2024-05-09T03:46:36.732Z,0
2024-05-09T03:47:38.049Z,0
2024-05-09T03:48:38.921Z,0
2024-05-09T03:49:39.874Z,0
2024-05-09T03:50:40.958Z,0
2024-05-09T03:51:41.780Z,0
2024-05-09T03:52:42.847Z,0
2024-05-09T03:53:43.842Z,0
2024-05-09T03:54:44.753Z,0
2024-05-09T03:55:45.761Z,0
2024-05-09T03:56:46.745Z,0
2024-05-09T03:57:47.575Z,0
2024-05-09T03:58:48.526Z,0
2024-05-09T03:59:49.409Z,0
2024-05-09T04:00:50.435Z,0
2024-05-09T04:01:51.443Z,0
2024-05-09T04:02:52.366Z,0
2024-05-09T04:03:53.568Z,0
2024-05-09T04:04:54.672Z,0
2024-05-09T04:05:55.563Z,0
2024-05-09T04:07:27.144Z,0
2024-05-09T04:08:28.109Z,5.625
2024-05-09T04:09:29.095Z,5.625
2024-05-09T04:10:33.571Z,5.625
2024-05-09T04:11:31.137Z,5.625
2024-05-09T04:12:32.197Z,5.625
2024-05-09T04:13:33.100Z,5.625
2024-05-09T04:14:34.418Z,5.625
2024-05-09T04:15:35.204Z,5.625
2024-05-09T04:16:36.162Z,5.625
2024-05-09T04:17:37.529Z,5.625
2024-05-09T04:18:38.502Z,5.625
2024-05-09T04:19:39.590Z,11.25
2024-05-09T04:20:41.381Z,11.25
2024-05-09T04:21:41.815Z,11.25
2024-05-09T04:22:42.877Z,11.25
2024-05-09T04:23:44.192Z,11.25
2024-05-09T04:24:45.205Z,11.25
2024-05-09T04:25:46.397Z,11.25
2024-05-09T04:26:47.396Z,11.25
2024-05-09T04:27:48.393Z,16.875
2024-05-09T04:28:49.554Z,16.875
2024-05-09T04:29:50.612Z,16.875
2024-05-09T04:30:51.643Z,16.875
2024-05-09T04:31:52.761Z,16.875
2024-05-09T04:32:54.069Z,16.875
2024-05-09T04:33:55.454Z,16.875
2024-05-09T04:35:27.306Z,16.875
2024-05-09T04:36:28.274Z,22.5
2024-05-09T04:37:29.357Z,22.5
2024-05-09T04:38:30.516Z,22.5
2024-05-09T04:39:31.615Z,22.5
2024-05-09T04:40:35.439Z,22.5
2024-05-09T04:41:34.057Z,22.5
2024-05-09T04:42:35.187Z,28.125
2024-05-09T04:43:36.197Z,28.125
2024-05-09T04:44:37.279Z,28.125
2024-05-09T04:45:38.308Z,28.125
2024-05-09T04:46:39.816Z,28.125
2024-05-09T04:47:41.191Z,28.125
2024-05-09T04:48:42.044Z,33.75
2024-05-09T04:49:43.192Z,33.75
2024-05-09T04:50:44.506Z,33.75
2024-05-09T04:51:45.529Z,33.75
2024-05-09T04:52:46.644Z,33.75
2024-05-09T04:53:47.691Z,33.75
2024-05-09T04:54:48.951Z,33.75
2024-05-09T04:55:50.117Z,33.75
2024-05-09T04:56:51.065Z,33.75
2024-05-09T04:57:52.181Z,33.75
2024-05-09T04:58:53.409Z,33.75
2024-05-09T04:59:54.772Z,33.75
2024-05-09T05:01:26.635Z,39.375
2024-05-09T05:02:27.867Z,39.375
2024-05-09T05:03:29.652Z,39.375
2024-05-09T05:04:30.647Z,39.375
2024-05-09T05:05:31.614Z,39.375
2024-05-09T05:06:32.826Z,39.375
2024-05-09T05:07:34.111Z,45
2024-05-09T05:08:35.314Z,45
2024-05-09T05:09:36.209Z,45
2024-05-09T05:10:37.466Z,45
2024-05-09T05:11:38.681Z,50.625
2024-05-09T05:12:39.705Z,50.625
2024-05-09T05:13:41.730Z,56.25
2024-05-09T05:14:41.964Z,50.625
2024-05-09T05:15:43.040Z,50.625
2024-05-09T05:16:44.179Z,50.625
2024-05-09T05:17:45.355Z,50.625
2024-05-09T05:18:46.155Z,56.25
2024-05-09T05:19:47.350Z,56.25
2024-05-09T05:20:48.449Z,61.875
2024-05-09T05:21:49.286Z,73.125
2024-05-09T05:22:50.352Z,78.75
2024-05-09T05:23:51.647Z,73.125
2024-05-09T05:24:52.714Z,78.75
2024-05-09T05:25:54.506Z,73.125
2024-05-09T05:26:55.060Z,61.875
2024-05-09T05:28:26.692Z,56.25
2024-05-09T05:29:27.689Z,56.25
2024-05-09T05:30:33.031Z,50.625
2024-05-09T05:31:29.965Z,50.625
2024-05-09T05:32:31.179Z,61.875
2024-05-09T05:33:32.351Z,61.875
2024-05-09T05:34:33.418Z,61.875
2024-05-09T05:35:36.441Z,56.25
2024-05-09T05:36:37.437Z,56.25
2024-05-09T05:37:38.546Z,56.25
2024-05-09T05:38:39.767Z,50.625
2024-05-09T05:39:40.699Z,50.625
2024-05-09T05:40:41.799Z,50.625
2024-05-09T05:41:42.990Z,50.625
2024-05-09T05:42:44.013Z,50.625
2024-05-09T05:43:44.971Z,56.25
2024-05-09T05:44:45.995Z,61.875
2024-05-09T05:45:47.110Z,67.5
2024-05-09T05:46:48.140Z,73.125
2024-05-09T05:47:49.185Z,73.125
2024-05-09T05:48:50.329Z,73.125
2024-05-09T05:49:51.280Z,78.75
2024-05-09T05:50:52.414Z,84.375
2024-05-09T05:51:53.257Z,101.25
2024-05-09T05:52:54.898Z,78.75
2024-05-09T05:54:26.271Z,78.75
2024-05-09T05:55:27.226Z,73.125
2024-05-09T05:56:28.411Z,73.125
2024-05-09T05:57:29.563Z,67.5
2024-05-09T05:58:30.715Z,67.5
2024-05-09T05:59:31.854Z,67.5
2024-05-09T06:00:38.000Z,61.875
2024-05-09T06:01:34.092Z,56.25
2024-05-09T06:02:35.204Z,56.25
2024-05-09T06:03:36.298Z,61.875
2024-05-09T06:04:37.289Z,56.25
2024-05-09T06:05:38.458Z,45
2024-05-09T06:06:39.420Z,39.375
2024-05-09T06:07:40.452Z,39.375
2024-05-09T06:08:41.420Z,50.625
2024-05-09T06:09:42.418Z,56.25
2024-05-09T06:10:43.784Z,67.5
2024-05-09T06:11:45.010Z,78.75
2024-05-09T06:12:45.923Z,73.125
2024-05-09T06:13:46.968Z,67.5
2024-05-09T06:14:47.981Z,73.125
2024-05-09T06:15:49.139Z,73.125
2024-05-09T06:16:50.168Z,84.375
2024-05-09T06:17:51.196Z,84.375
2024-05-09T06:18:52.300Z,90
2024-05-09T06:19:53.618Z,90
2024-05-09T06:20:56.675Z,84.375
2024-05-09T06:22:28.140Z,90
2024-05-09T06:23:29.376Z,95.625
2024-05-09T06:24:30.425Z,84.375
2024-05-09T06:25:31.790Z,78.75
2024-05-09T06:26:34.921Z,78.75
2024-05-09T06:27:35.872Z,84.375
2024-05-09T06:28:36.819Z,84.375
2024-05-09T06:29:40.148Z,84.375
2024-05-09T06:30:42.662Z,90
2024-05-09T06:31:42.171Z,95.625
2024-05-09T06:32:43.263Z,101.25
2024-05-09T06:33:44.211Z,112.5
2024-05-09T06:34:48.279Z,112.5
2024-05-09T06:35:49.026Z,118.125
2024-05-09T06:36:49.801Z,118.125
2024-05-09T06:37:50.791Z,123.75
2024-05-09T06:38:51.693Z,129.375
2024-05-09T06:39:52.937Z,129.375
2024-05-09T06:40:53.944Z,129.375
2024-05-09T06:42:25.372Z,135
2024-05-09T06:43:26.332Z,140.625
2024-05-09T06:44:27.537Z,135
2024-05-09T06:45:28.275Z,135
2024-05-09T06:46:29.236Z,129.375
2024-05-09T06:47:30.448Z,129.375
2024-05-09T06:48:31.666Z,123.75
2024-05-09T06:49:32.914Z,135
2024-05-09T06:50:37.779Z,129.375
2024-05-09T06:51:35.251Z,146.25
2024-05-09T06:52:36.387Z,146.25
2024-05-09T06:53:37.867Z,157.5
2024-05-09T06:54:38.592Z,151.875
2024-05-09T06:55:39.836Z,135
2024-05-09T06:56:40.967Z,129.375
2024-05-09T06:57:43.231Z,135
2024-05-09T06:58:43.149Z,129.375
2024-05-09T06:59:44.426Z,135
2024-05-09T07:00:45.465Z,135
2024-05-09T07:01:46.431Z,123.75
2024-05-09T07:02:47.434Z,135
2024-05-09T07:03:48.793Z,123.75
2024-05-09T07:04:49.927Z,118.125
2024-05-09T07:05:51.164Z,90
2024-05-09T07:06:52.183Z,95.625
2024-05-09T07:07:53.231Z,106.875
2024-05-09T07:09:25.469Z,106.875
2024-05-09T07:10:32.969Z,112.5
2024-05-09T07:11:28.083Z,106.875
2024-05-09T07:12:29.266Z,95.625
2024-05-09T07:13:30.414Z,106.875
2024-05-09T07:14:32.783Z,112.5
2024-05-09T07:15:32.702Z,112.5
2024-05-09T07:16:34.006Z,112.5
2024-05-09T07:17:35.596Z,95.625
2024-05-09T07:18:36.793Z,112.5
2024-05-09T07:19:37.799Z,112.5
2024-05-09T07:20:38.849Z,118.125
2024-05-09T07:21:39.852Z,112.5
2024-05-09T07:22:41.004Z,112.5
2024-05-09T07:23:45.168Z,101.25
2024-05-09T07:24:43.537Z,112.5
2024-05-09T07:25:44.673Z,101.25
2024-05-09T07:26:45.825Z,106.875
2024-05-09T07:27:47.224Z,101.25
2024-05-09T07:28:48.269Z,135
2024-05-09T07:29:49.440Z,135
2024-05-09T07:30:50.827Z,129.375
2024-05-09T07:31:52.077Z,146.25
2024-05-09T07:32:53.356Z,151.875
2024-05-09T07:34:25.065Z,146.25
2024-05-09T07:35:26.365Z,135
2024-05-09T07:36:27.423Z,140.625
2024-05-09T07:37:28.541Z,129.375
2024-05-09T07:38:29.848Z,123.75
2024-05-09T07:39:30.996Z,123.75
2024-05-09T07:40:36.167Z,129.375
2024-05-09T07:41:33.691Z,118.125
2024-05-09T07:42:34.639Z,112.5
2024-05-09T07:43:36.170Z,112.5
2024-05-09T07:44:37.417Z,106.875
2024-05-09T07:45:48.608Z,112.5
2024-05-09T07:47:47.667Z,106.875
2024-05-09T07:49:11.974Z,112.5
2024-05-09T07:51:32.292Z,112.5
2024-05-09T07:53:17.071Z,106.875
2024-05-09T07:53:34.601Z,112.5
2024-05-09T07:53:51.171Z,106.875
2024-05-09T07:54:49.176Z,112.5
2024-05-09T07:55:50.212Z,118.125
2024-05-09T07:56:51.692Z,101.25
2024-05-09T07:57:52.730Z,123.75
2024-05-09T07:59:24.720Z,118.125
2024-05-09T08:00:31.116Z,123.75
2024-05-09T08:01:27.733Z,135
2024-05-09T08:02:28.895Z,129.375
2024-05-09T08:03:29.833Z,135
2024-05-09T08:04:30.867Z,151.875
2024-05-09T08:05:31.996Z,157.5
2024-05-09T08:06:33.105Z,168.75
2024-05-09T08:07:34.171Z,163.125
2024-05-09T08:08:35.414Z,151.875
2024-05-09T08:09:38.380Z,129.375
2024-05-09T08:10:37.545Z,129.375
2024-05-09T08:11:38.569Z,129.375
2024-05-09T08:12:39.572Z,129.375
2024-05-09T08:13:40.382Z,123.75
2024-05-09T08:14:41.430Z,118.125
2024-05-09T08:15:42.445Z,123.75
2024-05-09T08:16:43.376Z,118.125
2024-05-09T08:17:44.523Z,112.5
2024-05-09T08:18:45.565Z,112.5
2024-05-09T08:19:46.516Z,123.75
2024-05-09T08:20:47.598Z,135
2024-05-09T08:21:48.502Z,129.375
2024-05-09T08:22:49.568Z,135
2024-05-09T08:23:50.554Z,129.375
2024-05-09T08:24:51.660Z,135
2024-05-09T08:25:53.241Z,129.375
2024-05-09T08:27:25.004Z,135
2024-05-09T08:28:26.329Z,135
2024-05-09T08:29:27.424Z,140.625
2024-05-09T08:30:35.827Z,146.25
2024-05-09T08:31:29.862Z,135
2024-05-09T08:32:30.969Z,140.625
2024-05-09T08:33:32.451Z,135
2024-05-09T08:34:33.662Z,123.75
2024-05-09T08:35:34.954Z,135
2024-05-09T08:36:35.794Z,135
2024-05-09T08:37:39.907Z,135
2024-05-09T08:38:39.862Z,146.25
2024-05-09T08:39:41.047Z,146.25
2024-05-09T08:40:42.376Z,151.875
2024-05-09T08:41:43.274Z,151.875
2024-05-09T08:42:44.311Z,168.75
2024-05-09T08:43:45.287Z,174.375
2024-05-09T08:44:46.406Z,168.75
2024-05-09T08:45:47.569Z,157.5
2024-05-09T08:46:48.537Z,140.625
2024-05-09T08:47:49.563Z,135
2024-05-09T08:48:50.710Z,135
2024-05-09T08:49:51.548Z,140.625
2024-05-09T08:50:53.096Z,146.25
2024-05-09T08:52:24.475Z,146.25
2024-05-09T08:53:26.076Z,163.125
2024-05-09T08:54:27.250Z,146.25
2024-05-09T08:55:28.119Z,140.625
2024-05-09T08:56:29.053Z,151.875
2024-05-09T08:57:30.155Z,174.375
2024-05-09T08:58:31.159Z,202.5
2024-05-09T08:59:32.120Z,202.5
2024-05-09T09:00:37.048Z,219.375
2024-05-09T09:01:34.842Z,219.375
2024-05-09T09:02:35.979Z,191.25
2024-05-09T09:03:36.844Z,174.375
2024-05-09T09:04:37.821Z,157.5
2024-05-09T09:05:39.530Z,140.625
2024-05-09T09:06:40.099Z,135
2024-05-09T09:07:41.387Z,135
2024-05-09T09:08:42.462Z,135
2024-05-09T09:09:43.795Z,129.375
2024-05-09T09:10:44.870Z,135
2024-05-09T09:11:45.891Z,129.375
2024-05-09T09:12:46.828Z,123.75
2024-05-09T09:13:47.804Z,123.75
2024-05-09T09:14:48.919Z,123.75
2024-05-09T09:15:50.550Z,118.125
2024-05-09T09:16:51.685Z,118.125
2024-05-09T09:18:23.538Z,118.125
2024-05-09T09:19:24.542Z,118.125
2024-05-09T09:20:33.271Z,118.125
2024-05-09T09:21:26.551Z,118.125
2024-05-09T09:22:27.659Z,118.125
2024-05-09T09:23:28.567Z,118.125
2024-05-09T09:24:30.064Z,118.125
2024-05-09T09:25:31.013Z,118.125
2024-05-09T09:26:32.002Z,118.125
2024-05-09T09:27:33.342Z,112.5
2024-05-09T09:28:34.618Z,118.125
2024-05-09T09:29:35.573Z,106.875
2024-05-09T09:30:38.071Z,106.875
2024-05-09T09:31:37.588Z,129.375
2024-05-09T09:32:38.496Z,123.75
2024-05-09T09:33:39.582Z,129.375
2024-05-09T09:34:40.655Z,135
2024-05-09T09:35:41.494Z,135
2024-05-09T09:36:42.469Z,146.25
2024-05-09T09:37:43.729Z,151.875
2024-05-09T09:38:44.982Z,146.25
2024-05-09T09:39:49.097Z,140.625
2024-05-09T09:40:49.693Z,140.625
2024-05-09T09:41:48.607Z,140.625
2024-05-09T09:42:49.786Z,140.625
2024-05-09T09:43:50.772Z,151.875
2024-05-09T09:45:01.880Z,174.375
2024-05-09T09:46:23.937Z,180
2024-05-09T09:47:25.059Z,196.875
2024-05-09T09:48:26.104Z,191.25
2024-05-09T09:49:27.100Z,191.25
2024-05-09T09:50:34.121Z,180
2024-05-09T09:51:29.299Z,180
2024-05-09T09:52:30.423Z,168.75
2024-05-09T09:53:31.455Z,163.125
2024-05-09T09:54:32.436Z,157.5
2024-05-09T09:55:33.653Z,151.875
2024-05-09T09:56:35.001Z,140.625
2024-05-09T09:57:36.042Z,135
2024-05-09T09:58:37.103Z,135
2024-05-09T09:59:38.228Z,135
2024-05-09T10:00:39.762Z,129.375
2024-05-09T10:01:41.053Z,118.125
2024-05-09T10:02:41.997Z,129.375
2024-05-09T10:03:43.119Z,129.375
2024-05-09T10:04:44.197Z,129.375
2024-05-09T10:05:47.159Z,129.375
2024-05-09T10:06:46.490Z,129.375
2024-05-09T10:07:47.522Z,129.375
2024-05-09T10:08:48.560Z,140.625
2024-05-09T10:09:49.626Z,140.625
2024-05-09T10:10:51.043Z,135
2024-05-09T10:12:22.346Z,129.375
2024-05-09T10:13:23.484Z,118.125
2024-05-09T10:14:24.621Z,123.75
2024-05-09T10:15:25.862Z,123.75
2024-05-09T10:16:27.109Z,146.25
2024-05-09T10:17:28.377Z,157.5
2024-05-09T10:18:31.328Z,163.125
2024-05-09T10:19:30.702Z,174.375
2024-05-09T10:20:32.855Z,168.75
2024-05-09T10:21:33.242Z,168.75
2024-05-09T10:22:34.132Z,163.125
2024-05-09T10:23:35.226Z,163.125
2024-05-09T10:24:36.675Z,163.125
2024-05-09T10:25:37.843Z,174.375
2024-05-09T10:26:39.169Z,180
2024-05-09T10:27:40.233Z,174.375
2024-05-09T10:28:41.282Z,174.375
2024-05-09T10:29:42.635Z,168.75
2024-05-09T10:30:44.490Z,163.125
2024-05-09T10:31:45.006Z,157.5
2024-05-09T10:32:46.124Z,146.25
2024-05-09T10:33:47.510Z,151.875
2024-05-09T10:34:48.277Z,157.5
2024-05-09T10:35:49.392Z,151.875
2024-05-09T10:36:50.548Z,151.875
2024-05-09T10:37:52.319Z,146.25
2024-05-09T10:39:23.701Z,146.25
2024-05-09T10:40:30.983Z,146.25
2024-05-09T10:41:26.097Z,146.25
2024-05-09T10:42:27.247Z,146.25
2024-05-09T10:43:28.695Z,157.5
2024-05-09T10:44:29.620Z,163.125
2024-05-09T10:45:30.772Z,174.375
2024-05-09T10:46:31.907Z,163.125
2024-05-09T10:47:32.968Z,174.375
2024-05-09T10:48:34.380Z,185.625
2024-05-09T10:49:35.323Z,208.125
2024-05-09T10:50:36.429Z,213.75
2024-05-09T10:51:37.285Z,236.25
2024-05-09T10:52:38.450Z,241.875
2024-05-09T10:53:39.418Z,236.25
2024-05-09T10:54:40.724Z,230.625
2024-05-09T10:55:41.760Z,236.25
2024-05-09T10:56:42.737Z,247.5
2024-05-09T10:57:44.051Z,241.875
2024-05-09T10:58:45.074Z,264.375
2024-05-09T10:59:45.944Z,281.25
2024-05-09T11:00:46.973Z,298.125
2024-05-09T11:01:48.105Z,309.375
2024-05-09T11:02:49.195Z,309.375
2024-05-09T11:03:50.445Z,298.125
2024-05-09T11:04:51.831Z,292.5
2024-05-09T11:06:23.448Z,281.25
2024-05-09T11:07:24.699Z,270
2024-05-09T11:08:25.763Z,270
2024-05-09T11:09:26.893Z,264.375
2024-05-09T11:10:33.692Z,253.125
2024-05-09T11:11:28.926Z,241.875
2024-05-09T11:12:29.923Z,225
2024-05-09T11:13:31.510Z,213.75
2024-05-09T11:14:32.254Z,202.5
2024-05-09T11:15:33.382Z,219.375
2024-05-09T11:16:34.558Z,230.625
2024-05-09T11:17:35.676Z,247.5
2024-05-09T11:18:39.081Z,264.375
2024-05-09T11:19:37.698Z,275.625
2024-05-09T11:20:39.048Z,264.375
2024-05-09T11:21:40.271Z,281.25
2024-05-09T11:22:41.224Z,286.875
2024-05-09T11:23:42.240Z,275.625
2024-05-09T11:24:43.337Z,258.75
2024-05-09T11:25:44.401Z,270
2024-05-09T11:26:45.342Z,309.375
2024-05-09T11:27:46.292Z,337.5
2024-05-09T11:28:47.275Z,365.625
2024-05-09T11:29:48.297Z,393.75
2024-05-09T11:30:49.218Z,388.125
2024-05-09T11:31:50.163Z,405
2024-05-09T11:33:22.138Z,427.5
2024-05-09T11:34:23.013Z,444.375
2024-05-09T11:35:24.045Z,433.125
2024-05-09T11:36:26.887Z,444.375
2024-05-09T11:37:27.999Z,444.375
2024-05-09T11:38:29.260Z,416.25
2024-05-09T11:39:30.367Z,399.375
2024-05-09T11:40:34.337Z,393.75
2024-05-09T11:41:32.462Z,410.625
2024-05-09T11:42:33.985Z,421.875
2024-05-09T11:43:35.466Z,416.25
2024-05-09T11:44:36.361Z,433.125
2024-05-09T11:45:37.369Z,461.25
2024-05-09T11:46:38.499Z,461.25
2024-05-09T11:47:39.648Z,466.875
2024-05-09T11:48:40.718Z,444.375
2024-05-09T11:49:41.553Z,427.5
2024-05-09T11:50:42.649Z,421.875
2024-05-09T11:51:43.561Z,438.75
2024-05-09T11:52:44.494Z,450
2024-05-09T11:53:45.493Z,438.75
2024-05-09T11:54:46.703Z,427.5
2024-05-09T11:55:47.582Z,427.5
2024-05-09T11:56:48.504Z,455.625
2024-05-09T11:57:49.515Z,433.125
2024-05-09T11:58:50.784Z,405
2024-05-09T12:01:26.965Z,360
2024-05-09T12:02:24.430Z,337.5
2024-05-09T12:03:25.376Z,315
2024-05-09T12:04:26.583Z,320.625
2024-05-09T12:05:27.570Z,331.875
2024-05-09T12:06:28.642Z,343.125
2024-05-09T12:07:29.902Z,360
2024-05-09T12:08:30.779Z,388.125
2024-05-09T12:09:31.943Z,421.875
2024-05-09T12:10:35.404Z,450
2024-05-09T12:11:34.086Z,466.875
2024-05-09T12:12:37.092Z,483.75
2024-05-09T12:13:36.278Z,506.25
2024-05-09T12:14:37.271Z,495
2024-05-09T12:15:39.076Z,500.625
2024-05-09T12:16:40.543Z,517.5
2024-05-09T12:17:41.686Z,528.75
2024-05-09T12:18:42.687Z,534.375
2024-05-09T12:19:43.627Z,523.125
2024-05-09T12:20:44.546Z,523.125
2024-05-09T12:21:45.651Z,450
2024-05-09T12:22:46.555Z,410.625
2024-05-09T12:23:47.911Z,416.25
2024-05-09T12:24:48.833Z,438.75
2024-05-09T12:25:50.785Z,489.375
2024-05-09T12:27:22.408Z,461.25
2024-05-09T12:28:23.562Z,433.125
2024-05-09T12:29:24.565Z,433.125
2024-05-09T12:30:34.869Z,388.125
2024-05-09T12:31:26.706Z,438.75
2024-05-09T12:32:27.731Z,489.375
2024-05-09T12:33:29.277Z,500.625
2024-05-09T12:34:30.372Z,444.375
2024-05-09T12:35:31.502Z,455.625
2024-05-09T12:36:32.527Z,472.5
2024-05-09T12:37:33.638Z,472.5
2024-05-09T12:38:34.886Z,461.25
2024-05-09T12:39:35.958Z,433.125
2024-05-09T12:40:38.798Z,438.75
2024-05-09T12:41:38.295Z,461.25
2024-05-09T12:42:39.708Z,517.5
2024-05-09T12:43:40.671Z,562.5
2024-05-09T12:44:41.875Z,556.875
2024-05-09T12:45:43.227Z,540
2024-05-09T12:46:44.238Z,545.625
2024-05-09T12:47:45.510Z,551.25
2024-05-09T12:48:46.585Z,483.75
2024-05-09T12:49:47.395Z,506.25
2024-05-09T12:50:48.368Z,511.875
2024-05-09T12:51:49.334Z,646.875
2024-05-09T12:53:21.424Z,680.625
2024-05-09T12:54:22.415Z,675
2024-05-09T12:55:24.194Z,703.125
2024-05-09T12:56:25.122Z,658.125
2024-05-09T12:57:26.295Z,624.375
2024-05-09T12:58:28.220Z,590.625
2024-05-09T12:59:29.257Z,556.875
2024-05-09T13:00:33.796Z,545.625
2024-05-09T13:01:31.609Z,545.625
2024-05-09T13:02:33.314Z,500.625
2024-05-09T13:03:35.152Z,427.5
2024-05-09T13:04:39.265Z,388.125
2024-05-09T13:05:40.315Z,399.375
2024-05-09T13:06:41.153Z,388.125
2024-05-09T13:07:42.426Z,376.875
2024-05-09T13:08:43.490Z,354.375
2024-05-09T13:09:44.613Z,343.125
2024-05-09T13:10:45.587Z,320.625
2024-05-09T13:11:48.649Z,320.625
2024-05-09T13:12:50.359Z,320.625
2024-05-09T13:14:24.298Z,309.375
2024-05-09T13:15:25.365Z,309.375
2024-05-09T13:16:26.498Z,348.75
2024-05-09T13:17:27.630Z,393.75
2024-05-09T13:18:28.395Z,427.5
2024-05-09T13:19:29.575Z,450
2024-05-09T13:20:33.474Z,500.625
2024-05-09T13:21:31.565Z,573.75
2024-05-09T13:22:32.366Z,601.875
2024-05-09T13:23:33.317Z,680.625
2024-05-09T13:24:34.233Z,613.125
2024-05-09T13:25:35.599Z,545.625
2024-05-09T13:26:36.651Z,517.5
2024-05-09T13:27:37.997Z,433.125
2024-05-09T13:28:38.997Z,416.25
2024-05-09T13:29:42.709Z,416.25
2024-05-09T13:30:42.295Z,421.875
2024-05-09T13:31:42.189Z,450
2024-05-09T13:32:43.333Z,489.375
2024-05-09T13:33:44.186Z,500.625
2024-05-09T13:34:45.166Z,551.25
2024-05-09T13:35:49.716Z,646.875
2024-05-09T13:36:47.118Z,624.375
2024-05-09T13:37:51.956Z,669.375
2024-05-09T13:39:23.517Z,573.75
2024-05-09T13:40:32.218Z,562.5
2024-05-09T13:41:26.634Z,708.75
2024-05-09T13:42:27.565Z,601.875
2024-05-09T13:43:28.656Z,528.75
2024-05-09T13:44:29.784Z,511.875
2024-05-09T13:45:30.795Z,556.875
2024-05-09T13:46:31.911Z,534.375
2024-05-09T13:47:32.876Z,483.75
2024-05-09T13:48:33.756Z,472.5